Time;durP1;ratioP1;P1;durP2;ratioP2;P2;SDS_P1;SDS_P2;PMS_P1;PMS_P2;Temp;Humidity;BMP_temperature;BMP_pressure;BME280_temperature;BME280_humidity;BME280_pressure;Samples;Min_cycle;Max_cycle;Signal;HPM_P1;HPM_P2
2021/11/18 00:00:51;;;;;;;3.88;1.40;;;22.50;71.00;;;;;;5072401;28;20086;-58
2021/11/18 00:03:19;;;;;;;6.22;1.50;;;22.80;70.10;;;;;;5072312;28;20419;-58
2021/11/18 00:05:47;;;;;;;4.47;1.40;;;22.70;70.10;;;;;;5071561;28;20025;-56
2021/11/18 00:08:15;;;;;;;4.15;1.20;;;22.90;69.80;;;;;;5071753;28;20044;-57
2021/11/18 00:10:51;;;;;;;7.30;1.80;;;23.00;69.40;;;;;;5072784;28;20028;-58
2021/11/18 00:13:21;;;;;;;5.22;1.35;;;23.00;69.30;;;;;;5072496;28;20029;-56
2021/11/18 00:15:49;;;;;;;4.30;1.60;;;22.90;69.20;;;;;;5072177;28;20459;-55
2021/11/18 00:18:22;;;;;;;4.95;1.70;;;23.00;68.90;;;;;;5072055;28;20039;-57
2021/11/18 00:21:15;;;;;;;5.10;1.60;;;23.10;69.20;;;;;;5072945;28;20032;-58
2021/11/18 00:23:48;;;;;;;5.22;1.88;;;23.10;69.30;;;;;;5072344;28;20103;-57
2021/11/18 00:26:17;;;;;;;6.13;1.75;;;23.10;69.30;;;;;;5071960;28;20309;-55
2021/11/18 00:28:44;;;;;;;5.22;1.38;;;23.00;70.00;;;;;;5072069;28;20020;-58
2021/11/18 00:31:15;;;;;;;4.00;1.13;;;23.00;69.60;;;;;;5072204;28;20028;-57
2021/11/18 00:33:44;;;;;;;3.97;1.70;;;23.10;69.80;;;;;;5072433;28;20105;-55
2021/11/18 00:36:14;;;;;;;4.97;1.30;;;23.00;69.50;;;;;;5071843;28;20623;-57
2021/11/18 00:38:43;;;;;;;2.85;1.10;;;23.10;69.90;;;;;;5071593;28;20036;-58
2021/11/18 00:41:11;;;;;;;3.13;1.35;;;23.20;69.30;;;;;;5072139;28;20024;-56
2021/11/18 00:43:39;;;;;;;4.90;1.15;;;23.10;69.50;;;;;;5072117;28;20054;-57
2021/11/18 00:46:06;;;;;;;3.78;1.33;;;23.20;69.40;;;;;;5071950;28;20028;-57
2021/11/18 00:48:34;;;;;;;3.83;1.40;;;23.10;69.50;;;;;;5071884;28;20021;-59
2021/11/18 00:51:11;;;;;;;5.72;1.67;;;23.20;69.70;;;;;;5071857;28;20020;-57
2021/11/18 00:53:45;;;;;;;2.40;1.10;;;23.30;69.40;;;;;;5070695;28;20131;-57
2021/11/18 00:56:13;;;;;;;6.28;1.40;;;23.30;69.30;;;;;;5071659;28;20025;-59
2021/11/18 00:58:40;;;;;;;3.70;1.42;;;23.40;69.40;;;;;;5071205;28;20036;-54
2021/11/18 01:01:09;;;;;;;3.17;1.30;;;23.50;68.60;;;;;;5071626;28;20028;-53
2021/11/18 01:03:37;;;;;;;7.88;2.05;;;23.50;68.80;;;;;;5071902;28;20040;-54
2021/11/18 01:06:05;;;;;;;6.60;2.33;;;23.60;68.60;;;;;;5072351;28;20464;-57
2021/11/18 01:08:32;;;;;;;5.88;1.75;;;23.70;68.90;;;;;;5071141;28;20128;-58
2021/11/18 01:11:05;;;;;;;3.35;1.23;;;23.70;68.50;;;;;;5071703;28;20075;-52
2021/11/18 01:13:34;;;;;;;4.93;1.48;;;23.80;68.40;;;;;;5072311;28;20028;-57
2021/11/18 01:16:03;;;;;;;7.07;1.73;;;23.80;67.90;;;;;;5071811;28;20020;-58
2021/11/18 01:18:32;;;;;;;3.20;1.38;;;23.70;67.80;;;;;;5072119;28;20475;-50
2021/11/18 01:21:01;;;;;;;2.10;0.93;;;23.70;67.90;;;;;;5072147;28;20035;-50
2021/11/18 01:23:33;;;;;;;2.15;1.05;;;23.70;68.10;;;;;;5069067;28;20385;-50
2021/11/18 01:26:01;;;;;;;3.38;1.00;;;23.70;68.40;;;;;;5071650;28;20037;-57
2021/11/18 01:28:29;;;;;;;4.65;1.90;;;23.80;68.70;;;;;;5071732;28;20032;-53
2021/11/18 01:30:56;;;;;;;3.33;1.63;;;23.80;68.60;;;;;;5071452;28;20021;-56
2021/11/18 01:33:24;;;;;;;5.18;1.75;;;23.70;69.40;;;;;;5071583;28;20016;-54
2021/11/18 01:35:53;;;;;;;5.07;1.92;;;23.80;68.40;;;;;;5071616;28;20099;-52
2021/11/18 01:38:21;;;;;;;3.53;1.55;;;23.80;68.70;;;;;;5071809;28;20051;-58
2021/11/18 01:40:57;;;;;;;4.18;2.55;;;23.80;68.90;;;;;;5071806;28;20052;-55
2021/11/18 01:43:30;;;;;;;4.20;1.92;;;23.70;69.10;;;;;;5071961;28;20391;-57
2021/11/18 01:45:58;;;;;;;7.38;3.25;;;23.80;68.70;;;;;;5071481;28;20036;-57
2021/11/18 01:48:26;;;;;;;7.57;3.38;;;23.90;68.90;;;;;;5071574;28;20406;-58
2021/11/18 01:50:55;;;;;;;6.15;2.58;;;23.80;69.20;;;;;;5072575;28;20475;-57
2021/11/18 01:53:29;;;;;;;7.93;2.88;;;23.80;69.20;;;;;;5066229;28;20040;-59
2021/11/18 01:55:58;;;;;;;7.97;3.72;;;23.90;69.60;;;;;;5069770;28;20020;-58
2021/11/18 01:58:25;;;;;;;5.03;2.50;;;23.90;69.00;;;;;;5071937;28;20521;-57
2021/11/18 02:00:56;;;;;;;5.13;2.60;;;23.90;68.90;;;;;;5072646;28;20048;-54
2021/11/18 02:03:25;;;;;;;5.03;2.85;;;24.00;68.80;;;;;;5072635;28;20013;-56
2021/11/18 02:06:25;;;;;;;13.60;3.03;;;23.90;69.10;;;;;;5068707;28;20021;-55
2021/11/18 02:08:53;;;;;;;5.43;3.33;;;24.00;69.00;;;;;;5071950;28;20078;-53
2021/11/18 02:11:46;;;;;;;5.97;3.13;;;24.10;69.30;;;;;;5071786;28;20127;-60
2021/11/18 02:14:17;;;;;;;5.60;3.58;;;24.00;69.40;;;;;;5070700;28;20024;-58
2021/11/18 02:16:46;;;;;;;10.18;4.85;;;24.00;69.50;;;;;;5071256;28;20024;-59
2021/11/18 02:19:17;;;;;;;19.40;9.68;;;24.10;69.20;;;;;;5071788;28;20120;-57
2021/11/18 02:21:50;;;;;;;28.85;15.52;;;24.10;69.30;;;;;;5072621;28;20027;-56
2021/11/18 02:24:32;;;;;;;22.42;14.27;;;24.10;69.50;;;;;;5068341;28;20045;-52
2021/11/18 02:26:59;;;;;;;25.45;15.93;;;24.20;69.60;;;;;;5072243;28;20062;-54
2021/11/18 02:29:27;;;;;;;26.60;15.32;;;24.20;69.30;;;;;;5071064;28;20471;-57
2021/11/18 02:32:01;;;;;;;25.25;15.52;;;24.20;69.40;;;;;;5070017;28;20374;-54
2021/11/18 02:34:40;;;;;;;22.63;14.00;;;24.30;69.50;;;;;;5067993;28;20025;-52
2021/11/18 02:37:08;;;;;;;28.85;14.70;;;24.20;69.70;;;;;;5069596;28;20023;-58
2021/11/18 02:39:35;;;;;;;29.23;13.70;;;24.10;70.20;;;;;;5071344;28;20083;-54
2021/11/18 02:42:05;;;;;;;20.80;12.38;;;24.20;70.30;;;;;;5070758;28;20107;-54
2021/11/18 02:44:33;;;;;;;15.90;11.13;;;24.10;70.40;;;;;;5067815;28;20036;-54
2021/11/18 02:47:03;;;;;;;22.45;10.98;;;24.10;70.60;;;;;;5071742;28;20086;-57
2021/11/18 02:49:30;;;;;;;19.77;10.45;;;24.20;70.30;;;;;;5071517;28;20051;-54
2021/11/18 02:51:58;;;;;;;19.00;10.48;;;24.20;70.20;;;;;;5070106;28;20114;-57
2021/11/18 02:54:25;;;;;;;17.92;9.27;;;24.20;70.20;;;;;;5068597;28;20028;-51
2021/11/18 02:56:54;;;;;;;16.30;8.07;;;24.20;70.00;;;;;;5071592;28;20039;-54
2021/11/18 02:59:22;;;;;;;12.23;8.00;;;24.20;70.00;;;;;;5070243;28;20038;-58
2021/11/18 03:01:50;;;;;;;18.40;8.23;;;24.30;69.80;;;;;;5070573;28;20489;-53
2021/11/18 03:04:17;;;;;;;14.23;7.68;;;24.40;69.80;;;;;;5069288;28;20408;-54
2021/11/18 03:06:44;;;;;;;13.10;6.53;;;24.40;69.50;;;;;;5069912;28;20012;-54
2021/11/18 03:09:12;;;;;;;11.35;6.70;;;24.40;69.60;;;;;;5070498;28;20021;-56
2021/11/18 03:11:40;;;;;;;11.88;7.03;;;24.40;69.40;;;;;;5071217;28;20032;-52
2021/11/18 03:14:08;;;;;;;14.57;7.10;;;24.30;70.20;;;;;;5070577;28;20025;-58
2021/11/18 03:16:37;;;;;;;16.25;8.30;;;24.30;70.00;;;;;;5067139;28;20060;-56
2021/11/18 03:19:04;;;;;;;13.80;7.15;;;24.40;70.00;;;;;;5070780;28;20047;-52
2021/11/18 03:21:32;;;;;;;9.00;5.75;;;24.30;70.00;;;;;;5071123;28;20471;-56
2021/11/18 03:23:59;;;;;;;10.90;6.97;;;24.40;70.30;;;;;;5069731;28;20020;-54
2021/11/18 03:26:30;;;;;;;11.23;6.45;;;24.30;70.40;;;;;;5065021;28;20020;-52
2021/11/18 03:28:58;;;;;;;10.73;5.65;;;24.30;70.40;;;;;;5071257;28;20493;-58
2021/11/18 03:31:26;;;;;;;10.70;5.10;;;24.40;70.10;;;;;;5070621;28;20036;-57
2021/11/18 03:33:57;;;;;;;19.05;5.60;;;24.40;69.90;;;;;;5070125;28;20021;-59
2021/11/18 03:36:26;;;;;;;11.27;5.07;;;24.40;69.90;;;;;;5072677;28;20020;-64
2021/11/18 03:38:54;;;;;;;9.85;5.15;;;24.40;70.00;;;;;;5071979;28;20086;-62
2021/11/18 03:41:24;;;;;;;12.38;5.10;;;24.30;70.00;;;;;;5072874;28;20504;-55
2021/11/18 03:43:56;;;;;;;15.13;5.18;;;24.30;70.30;;;;;;5071903;28;20033;-58
2021/11/18 03:46:28;;;;;;;8.15;4.38;;;24.20;70.70;;;;;;5072573;28;20371;-59
2021/11/18 03:48:56;;;;;;;7.95;4.13;;;24.20;71.00;;;;;;5073233;28;20025;-58
2021/11/18 03:51:24;;;;;;;7.82;4.13;;;24.10;71.00;;;;;;5072664;28;20332;-56
2021/11/18 03:53:52;;;;;;;6.25;3.42;;;24.10;71.40;;;;;;5072684;28;20036;-56
2021/11/18 03:56:24;;;;;;;6.53;3.38;;;24.10;72.00;;;;;;5072641;28;20093;-57
2021/11/18 03:58:55;;;;;;;7.28;3.72;;;24.00;71.80;;;;;;5072806;28;20412;-57
2021/11/18 04:01:23;;;;;;;8.00;3.72;;;24.00;71.90;;;;;;5071660;28;20085;-59
2021/11/18 04:03:54;;;;;;;11.40;3.75;;;24.00;72.00;;;;;;5071456;28;20033;-58
2021/11/18 04:06:23;;;;;;;9.65;3.45;;;24.00;71.80;;;;;;5072220;28;20378;-60
2021/11/18 04:08:50;;;;;;;7.00;2.90;;;24.00;71.90;;;;;;5070955;28;20467;-58
2021/11/18 04:11:18;;;;;;;6.25;3.08;;;24.00;71.90;;;;;;5072299;28;20384;-56
2021/11/18 04:13:45;;;;;;;6.00;3.15;;;23.90;71.80;;;;;;5072212;28;20554;-60
2021/11/18 04:16:12;;;;;;;4.63;2.50;;;23.90;72.10;;;;;;5070352;28;20037;-57
2021/11/18 04:18:40;;;;;;;8.88;3.30;;;23.90;72.00;;;;;;5072700;28;20070;-59
2021/11/18 04:21:08;;;;;;;8.65;3.05;;;23.80;72.40;;;;;;5072573;28;20021;-56
2021/11/18 04:23:35;;;;;;;7.60;2.90;;;23.90;72.50;;;;;;5072414;28;20029;-55
2021/11/18 04:26:04;;;;;;;10.10;3.20;;;23.80;72.90;;;;;;5063260;28;20029;-54
2021/11/18 04:28:33;;;;;;;5.22;2.25;;;23.70;73.10;;;;;;5069828;28;20024;-53
2021/11/18 04:31:07;;;;;;;6.47;2.60;;;23.70;73.60;;;;;;5068293;28;20031;-56
2021/11/18 04:33:37;;;;;;;8.45;2.70;;;23.70;73.30;;;;;;5069585;28;20024;-52
2021/11/18 04:36:07;;;;;;;7.07;2.40;;;23.70;73.30;;;;;;5067043;28;20360;-53
2021/11/18 04:38:35;;;;;;;9.80;3.20;;;23.70;73.50;;;;;;5067430;28;20083;-50
2021/11/18 04:41:04;;;;;;;5.35;2.17;;;23.70;73.70;;;;;;5069715;28;20020;-54
2021/11/18 04:43:32;;;;;;;6.75;2.47;;;23.70;74.30;;;;;;5068683;28;20043;-54
2021/11/18 04:45:59;;;;;;;5.57;2.33;;;23.70;73.50;;;;;;5065415;28;20024;-50
2021/11/18 04:48:27;;;;;;;7.88;2.72;;;23.80;73.30;;;;;;5069052;28;20040;-57
2021/11/18 04:50:54;;;;;;;6.22;2.17;;;23.70;73.50;;;;;;5064989;28;20348;-54
2021/11/18 04:53:26;;;;;;;4.82;1.90;;;23.70;73.50;;;;;;5066949;28;20072;-52
2021/11/18 04:55:53;;;;;;;5.47;2.33;;;23.70;73.60;;;;;;5065598;28;20487;-54
2021/11/18 04:58:21;;;;;;;5.53;2.13;;;23.70;73.50;;;;;;5069100;28;20926;-55
2021/11/18 05:00:52;;;;;;;4.63;2.20;;;23.80;73.60;;;;;;5068996;28;20027;-53
2021/11/18 05:03:20;;;;;;;6.38;1.85;;;23.70;73.50;;;;;;5068657;28;20025;-59
2021/11/18 05:05:49;;;;;;;9.25;2.30;;;23.70;73.60;;;;;;5065925;28;20054;-57
2021/11/18 05:08:17;;;;;;;6.65;2.33;;;23.70;73.60;;;;;;5069355;28;20029;-54
2021/11/18 05:10:49;;;;;;;11.80;3.17;;;23.70;73.80;;;;;;5068397;28;20069;-53
2021/11/18 05:13:17;;;;;;;10.30;2.23;;;23.70;74.00;;;;;;5068783;28;20131;-54
2021/11/18 05:15:47;;;;;;;9.60;2.17;;;23.70;73.80;;;;;;5066523;28;20025;-58
2021/11/18 05:18:16;;;;;;;4.85;1.75;;;23.70;74.00;;;;;;5068554;28;20045;-53
2021/11/18 05:20:44;;;;;;;5.15;1.80;;;23.70;73.90;;;;;;5069091;28;20020;-55
2021/11/18 05:23:13;;;;;;;8.70;2.25;;;23.70;73.70;;;;;;5068947;28;20029;-55
2021/11/18 05:25:41;;;;;;;8.73;1.88;;;23.70;73.80;;;;;;5065533;28;20463;-54
2021/11/18 05:28:09;;;;;;;4.72;2.45;;;23.70;74.00;;;;;;5072557;28;20052;-54
2021/11/18 05:30:38;;;;;;;9.30;2.25;;;23.70;74.10;;;;;;5072040;28;20036;-56
2021/11/18 05:33:09;;;;;;;7.20;2.30;;;23.80;73.70;;;;;;5070407;28;20024;-53
2021/11/18 05:35:38;;;;;;;7.38;2.40;;;23.80;73.80;;;;;;5065751;28;20871;-54
2021/11/18 05:38:06;;;;;;;4.40;1.77;;;23.80;73.80;;;;;;5068657;28;20098;-52
2021/11/18 05:40:36;;;;;;;9.25;2.10;;;23.80;74.00;;;;;;5072628;28;20028;-55
2021/11/18 05:43:05;;;;;;;5.35;2.08;;;23.80;74.90;;;;;;5072216;28;20033;-59
2021/11/18 05:45:34;;;;;;;5.72;1.85;;;23.80;74.40;;;;;;5069455;28;20024;-62
2021/11/18 05:48:05;;;;;;;11.23;2.50;;;23.70;74.20;;;;;;5072294;28;20035;-61
2021/11/18 05:50:34;;;;;;;15.73;3.10;;;23.60;76.40;;;;;;5071854;28;20036;-57
2021/11/18 05:53:02;;;;;;;13.43;3.53;;;23.70;75.80;;;;;;5072174;28;20127;-59
2021/11/18 05:55:32;;;;;;;13.38;4.40;;;23.60;75.50;;;;;;5068008;28;20379;-60
2021/11/18 05:57:59;;;;;;;17.38;4.13;;;23.50;76.50;;;;;;5071628;28;20032;-59
2021/11/18 06:00:29;;;;;;;12.43;3.47;;;23.60;77.10;;;;;;5071920;28;20020;-56
2021/11/18 06:02:57;;;;;;;15.70;2.90;;;23.40;75.30;;;;;;5071995;28;20086;-56
2021/11/18 06:05:25;;;;;;;13.52;2.53;;;23.70;76.60;;;;;;5068129;28;20090;-57
2021/11/18 06:07:54;;;;;;;12.75;2.53;;;23.50;75.90;;;;;;5071728;28;20024;-56
2021/11/18 06:10:24;;;;;;;13.13;3.10;;;23.60;76.20;;;;;;5072330;28;20374;-59
2021/11/18 06:12:52;;;;;;;16.23;2.67;;;23.60;75.90;;;;;;5070343;28;20035;-56
2021/11/18 06:15:20;;;;;;;11.13;4.28;;;23.50;75.90;;;;;;5064508;28;20084;-56
2021/11/18 06:17:47;;;;;;;15.02;3.25;;;23.50;76.20;;;;;;5071872;28;20021;-56
2021/11/18 06:20:16;;;;;;;11.35;3.03;;;23.40;77.80;;;;;;5072538;28;20039;-52
2021/11/18 06:22:44;;;;;;;16.85;3.25;;;23.50;76.40;;;;;;5069796;28;20032;-57
2021/11/18 06:25:14;;;;;;;7.70;2.05;;;23.20;76.70;;;;;;5068542;28;20058;-53
2021/11/18 06:27:44;;;;;;;10.27;2.88;;;23.10;76.40;;;;;;5071726;28;20027;-54
2021/11/18 06:30:17;;;;;;;7.45;3.63;;;22.90;77.40;;;;;;5069761;28;20555;-52
2021/11/18 06:32:44;;;;;;;9.27;2.63;;;23.00;78.40;;;;;;5071570;28;20484;-56
2021/11/18 06:35:14;;;;;;;10.02;3.30;;;22.80;79.20;;;;;;5068138;28;20147;-59
2021/11/18 06:37:42;;;;;;;7.93;2.00;;;22.90;78.30;;;;;;5070416;28;20387;-56
2021/11/18 06:40:14;;;;;;;7.13;2.08;;;22.90;78.00;;;;;;5069790;28;20554;-56
2021/11/18 06:42:41;;;;;;;;;;;22.80;79.90;;;;;;5071159;28;20119;-59
2021/11/18 06:45:11;;;;;;;13.25;3.00;;;22.70;80.30;;;;;;5067560;28;20059;-58
2021/11/18 06:47:38;;;;;;;10.25;3.10;;;22.90;79.60;;;;;;5071021;28;20466;-54
2021/11/18 06:50:06;;;;;;;13.38;3.33;;;23.10;78.60;;;;;;5073634;28;20025;-56
2021/11/18 06:52:34;;;;;;;8.80;3.08;;;22.60;81.00;;;;;;5074436;28;20048;-56
2021/11/18 06:55:01;;;;;;;10.48;2.45;;;22.70;80.90;;;;;;5074465;28;20027;-57
2021/11/18 06:57:29;;;;;;;12.35;3.13;;;22.80;80.90;;;;;;5073722;28;20040;-55
2021/11/18 06:59:57;;;;;;;8.93;2.65;;;22.80;80.90;;;;;;5073984;28;20128;-54
2021/11/18 07:02:26;;;;;;;13.52;2.30;;;22.80;81.00;;;;;;5073543;28;20017;-58
2021/11/18 07:04:54;;;;;;;12.98;2.90;;;22.50;82.20;;;;;;5073677;28;20029;-58
2021/11/18 07:07:21;;;;;;;12.77;2.80;;;22.60;81.20;;;;;;5072485;28;20486;-60
2021/11/18 07:09:48;;;;;;;14.15;2.60;;;22.50;82.10;;;;;;5074278;28;20048;-56
2021/11/18 07:12:19;;;;;;;17.52;3.50;;;22.20;83.30;;;;;;5073866;28;20475;-56
2021/11/18 07:14:48;;;;;;;12.77;3.28;;;22.30;83.40;;;;;;5073857;28;20051;-61
2021/11/18 07:17:16;;;;;;;9.65;2.45;;;22.30;83.90;;;;;;5071264;28;20540;-61
2021/11/18 07:19:43;;;;;;;11.90;3.13;;;22.10;84.70;;;;;;5074120;28;20036;-60
2021/11/18 07:22:11;;;;;;;16.90;3.22;;;22.20;85.50;;;;;;5063083;28;20391;-61
2021/11/18 07:24:39;;;;;;;11.40;3.00;;;22.20;85.30;;;;;;5071575;28;20107;-60
2021/11/18 07:27:07;;;;;;;10.98;2.17;;;22.30;85.20;;;;;;5066220;28;20088;-53
2021/11/18 07:29:34;;;;;;;16.90;3.75;;;22.10;85.70;;;;;;5071204;28;20029;-60
2021/11/18 07:32:13;;;;;;;13.60;3.10;;;22.00;86.90;;;;;;5070966;28;20035;-53
2021/11/18 07:34:41;;;;;;;14.68;3.42;;;22.20;86.50;;;;;;5067907;28;20150;-61
2021/11/18 07:37:08;;;;;;;13.48;2.50;;;22.10;86.80;;;;;;5066837;28;20045;-56
2021/11/18 07:39:36;;;;;;;17.27;5.15;;;21.90;87.20;;;;;;5070879;28;20054;-54
2021/11/18 07:42:03;;;;;;;14.38;2.28;;;22.00;87.30;;;;;;5070188;28;20110;-60
2021/11/18 07:44:30;;;;;;;21.15;4.30;;;22.00;87.20;;;;;;5070937;28;20036;-58
2021/11/18 07:46:58;;;;;;;13.38;2.67;;;22.10;87.30;;;;;;5065720;28;20030;-57
2021/11/18 07:49:27;;;;;;;9.60;2.88;;;22.10;87.00;;;;;;5071922;28;20036;-55
2021/11/18 07:51:55;;;;;;;15.63;3.05;;;22.20;86.70;;;;;;5071833;28;20040;-57
2021/11/18 07:54:24;;;;;;;16.92;3.47;;;22.30;86.40;;;;;;5073155;28;20024;-55
2021/11/18 07:56:53;;;;;;;15.25;2.85;;;22.30;86.30;;;;;;5073254;28;20036;-60
2021/11/18 07:59:22;;;;;;;15.93;2.72;;;22.20;86.60;;;;;;5072988;28;20041;-61
2021/11/18 08:01:51;;;;;;;15.05;3.47;;;22.10;87.20;;;;;;5072807;28;20026;-54
2021/11/18 08:04:18;;;;;;;15.63;3.20;;;22.10;87.40;;;;;;5070798;28;20058;-56
2021/11/18 08:06:46;;;;;;;21.65;4.47;;;22.10;87.20;;;;;;5072233;28;20020;-54
2021/11/18 08:09:14;;;;;;;16.77;3.45;;;22.20;87.00;;;;;;5070827;28;20020;-55
2021/11/18 08:11:49;;;;;;;15.50;3.45;;;22.10;87.40;;;;;;5072554;28;20021;-53
2021/11/18 08:14:18;;;;;;;18.80;3.10;;;22.20;87.20;;;;;;5071476;28;20025;-55
2021/11/18 08:16:46;;;;;;;20.33;3.75;;;22.20;87.60;;;;;;5070805;28;20066;-58
2021/11/18 08:19:14;;;;;;;15.95;3.95;;;22.20;87.30;;;;;;5072607;28;20047;-63
2021/11/18 08:21:43;;;;;;;17.40;3.63;;;22.10;88.20;;;;;;5072258;28;20036;-67
2021/11/18 08:24:13;;;;;;;14.75;3.75;;;22.10;89.50;;;;;;5072998;28;20479;-66
2021/11/18 08:26:41;;;;;;;16.73;3.22;;;22.10;88.30;;;;;;5072891;28;20029;-67
2021/11/18 08:29:11;;;;;;;19.33;3.25;;;22.00;87.60;;;;;;5072935;28;20033;-65
2021/11/18 08:31:39;;;;;;;20.42;3.42;;;22.00;88.30;;;;;;5073410;28;20589;-65
2021/11/18 08:34:07;;;;;;;31.00;3.78;;;21.90;87.60;;;;;;5072850;28;20054;-66
2021/11/18 08:36:37;;;;;;;16.02;3.53;;;22.00;87.70;;;;;;5072439;28;20063;-66
2021/11/18 08:39:18;;;;;;;13.35;3.47;;;21.90;86.80;;;;;;5071086;28;20063;-65
2021/11/18 08:41:47;;;;;;;11.52;3.50;;;21.80;86.80;;;;;;5072605;28;20483;-67
2021/11/18 08:44:16;;;;;;;14.93;3.42;;;21.90;87.40;;;;;;5072347;28;20036;-65
2021/11/18 08:46:45;;;;;;;23.38;5.43;;;21.80;86.50;;;;;;5071590;28;20044;-64
2021/11/18 08:49:13;;;;;;;26.02;4.10;;;22.00;90.10;;;;;;5072203;28;20027;-65
2021/11/18 08:51:42;;;;;;;16.52;4.10;;;22.10;89.10;;;;;;5059696;28;20078;-65
2021/11/18 08:54:14;;;;;;;14.98;3.55;;;22.10;86.60;;;;;;5066844;28;20066;-68
2021/11/18 08:56:42;;;;;;;14.10;3.30;;;22.10;87.30;;;;;;5069641;28;20426;-63
2021/11/18 08:59:10;;;;;;;16.73;3.38;;;22.00;85.40;;;;;;5066101;28;20044;-63
2021/11/18 09:01:42;;;;;;;13.30;3.72;;;21.90;85.80;;;;;;5071405;28;20033;-63
2021/11/18 09:04:15;;;;;;;14.23;3.90;;;22.00;85.00;;;;;;5073925;28;20056;-59
2021/11/18 09:06:43;;;;;;;17.50;3.63;;;21.90;85.00;;;;;;5072265;28;20111;-67
2021/11/18 09:09:11;;;;;;;16.65;3.58;;;21.90;85.00;;;;;;5071576;28;20069;-69
2021/11/18 09:11:39;;;;;;;14.98;3.33;;;21.90;84.60;;;;;;5072116;28;20070;-66
2021/11/18 09:14:08;;;;;;;9.80;3.03;;;21.90;84.00;;;;;;5074016;28;20028;-68
2021/11/18 09:16:37;;;;;;;12.65;3.17;;;21.90;84.10;;;;;;5073528;28;20032;-66
2021/11/18 09:19:08;;;;;;;15.65;3.60;;;21.90;84.00;;;;;;5074142;28;20391;-68
2021/11/18 09:21:36;;;;;;;10.48;2.50;;;21.90;83.70;;;;;;5075655;28;20036;-54
2021/11/18 09:24:08;;;;;;;11.45;3.60;;;21.90;84.00;;;;;;5075987;28;20032;-56
2021/11/18 09:26:37;;;;;;;;;;;22.00;84.30;;;;;;5076804;28;20433;-55
2021/11/18 09:29:06;;;;;;;10.75;2.38;;;22.00;83.80;;;;;;5075291;28;19920;-57
2021/11/18 09:31:37;;;;;;;11.40;3.08;;;22.00;83.70;;;;;;5072900;28;20489;-55
2021/11/18 09:34:05;;;;;;;15.40;3.70;;;22.10;83.50;;;;;;5075755;28;20119;-53
2021/11/18 09:36:33;;;;;;;18.17;4.85;;;22.10;83.80;;;;;;5076032;28;20384;-54
2021/11/18 09:39:01;;;;;;;13.10;4.72;;;22.10;85.40;;;;;;5074051;28;20083;-53
2021/11/18 09:41:28;;;;;;;23.33;7.43;;;22.20;84.60;;;;;;5073080;28;20047;-56
2021/11/18 09:44:38;;;;;;;28.40;13.65;;;22.20;84.00;;;;;;5075540;28;20078;-55
2021/11/18 09:47:11;;;;;;;81.18;38.20;;;22.20;83.70;;;;;;5072266;28;20021;-55
2021/11/18 09:50:00;;;;;;;132.75;58.28;;;22.20;83.80;;;;;;5072082;28;20045;-53
2021/11/18 09:52:45;;;;;;;158.52;75.53;;;22.30;83.90;;;;;;5075475;28;20039;-52
2021/11/18 09:55:38;;;;;;;162.57;76.88;;;22.30;84.00;;;;;;5075371;28;20070;-55
2021/11/18 09:58:30;;;;;;;185.43;86.75;;;22.30;84.20;;;;;;5069116;28;20044;-54
2021/11/18 10:01:21;;;;;;;176.63;80.63;;;22.30;84.20;;;;;;5072434;28;20017;-53
2021/11/18 10:04:19;;;;;;;166.25;83.13;;;22.40;84.30;;;;;;5075163;28;20185;-55
2021/11/18 10:06:51;;;;;;;177.60;86.13;;;22.40;84.40;;;;;;5073856;28;20501;-56
2021/11/18 10:09:27;;;;;;;173.38;85.50;;;22.40;84.40;;;;;;5070927;28;20032;-56
2021/11/18 10:12:31;;;;;;;173.82;85.95;;;22.40;84.40;;;;;;5072936;28;20029;-57
2021/11/18 10:15:06;;;;;;;163.80;79.95;;;22.40;84.50;;;;;;5072171;28;20056;-54
2021/11/18 10:17:37;;;;;;;160.38;79.55;;;22.40;84.50;;;;;;5072196;28;20036;-57
2021/11/18 10:20:19;;;;;;;150.97;79.17;;;22.40;84.60;;;;;;5065451;28;20516;-53
2021/11/18 10:22:51;;;;;;;170.55;80.85;;;22.40;84.90;;;;;;5070855;28;20055;-56
2021/11/18 10:25:23;;;;;;;149.85;76.75;;;22.40;84.80;;;;;;5072774;28;20063;-55
2021/11/18 10:27:58;;;;;;;154.65;77.97;;;22.40;84.70;;;;;;5072382;28;20032;-56
2021/11/18 10:30:48;;;;;;;155.20;75.93;;;22.40;84.60;;;;;;5069283;28;20089;-53
2021/11/18 10:33:27;;;;;;;158.20;76.15;;;22.40;84.70;;;;;;5070058;28;20044;-53
2021/11/18 10:36:07;;;;;;;143.57;73.68;;;22.40;84.80;;;;;;5071712;28;20059;-58
2021/11/18 10:38:38;;;;;;;150.45;71.95;;;22.40;84.80;;;;;;5069050;28;20051;-53
2021/11/18 10:41:22;;;;;;;143.70;71.32;;;22.40;85.20;;;;;;5069300;28;20412;-52
2021/11/18 10:44:23;;;;;;;135.00;67.65;;;22.40;85.10;;;;;;5070086;28;20194;-55
2021/11/18 10:47:16;;;;;;;127.20;67.38;;;22.40;85.00;;;;;;5071527;28;20121;-55
2021/11/18 10:49:48;;;;;;;125.05;64.70;;;22.40;85.00;;;;;;5066046;28;20078;-50
2021/11/18 10:52:24;;;;;;;;;;;22.40;85.30;;;;;;5071598;28;20131;-48
2021/11/18 10:55:05;;;;;;;123.38;62.10;;;22.40;85.20;;;;;;5071257;28;19909;-53
2021/11/18 10:57:33;;;;;;;124.70;58.55;;;22.40;85.20;;;;;;5070853;28;20064;-57
2021/11/18 11:00:19;;;;;;;111.57;55.83;;;22.40;85.20;;;;;;5068129;28;20032;-55
2021/11/18 11:02:47;;;;;;;111.60;56.03;;;22.40;85.50;;;;;;5071011;28;20112;-56
2021/11/18 11:05:36;;;;;;;112.80;55.63;;;22.40;85.30;;;;;;5071996;28;20028;-62
2021/11/18 11:08:23;;;;;;;112.57;56.13;;;22.40;85.40;;;;;;5071437;28;20425;-55
2021/11/18 11:10:57;;;;;;;110.80;53.03;;;22.40;85.40;;;;;;5068531;28;20120;-54
2021/11/18 11:13:58;;;;;;;99.43;52.08;;;22.40;85.40;;;;;;5071590;28;20502;-53
2021/11/18 11:16:56;;;;;;;99.05;50.65;;;22.40;85.40;;;;;;5070353;28;20029;-58
2021/11/18 11:19:29;;;;;;;93.38;47.13;;;22.40;85.50;;;;;;5066163;28;20049;-56
2021/11/18 11:22:09;;;;;;;103.05;51.25;;;22.40;85.50;;;;;;5071128;28;20103;-55
2021/11/18 11:25:15;;;;;;;98.75;48.15;;;22.40;85.60;;;;;;5069891;28;20036;-55
2021/11/18 11:28:03;;;;;;;96.10;45.72;;;22.30;85.40;;;;;;5049391;28;20040;-55
2021/11/18 11:30:36;;;;;;;89.47;44.72;;;22.30;86.30;;;;;;5065896;28;20020;-53
2021/11/18 11:33:23;;;;;;;89.65;44.33;;;22.30;85.50;;;;;;5068512;28;20036;-57
2021/11/18 11:36:33;;;;;;;85.50;42.75;;;22.30;85.50;;;;;;5071292;28;20032;-53
2021/11/18 11:39:00;;;;;;;81.95;41.45;;;22.30;86.20;;;;;;5046448;28;20045;-57
2021/11/18 11:42:23;;;;;;;86.97;42.92;;;22.30;85.70;;;;;;5062438;28;20441;-55
2021/11/18 11:44:56;;;;;;;80.07;39.08;;;22.30;85.70;;;;;;5067992;28;20053;-55
2021/11/18 11:47:50;;;;;;;74.72;37.95;;;22.30;85.90;;;;;;5069094;28;20379;-55
2021/11/18 11:50:39;;;;;;;78.05;39.10;;;22.20;85.90;;;;;;5063906;28;20024;-58
2021/11/18 11:53:23;;;;;;;70.43;38.80;;;22.30;85.90;;;;;;5069156;28;20044;-49
2021/11/18 11:56:06;;;;;;;80.45;41.40;;;22.20;86.10;;;;;;5065842;28;20078;-54
2021/11/18 11:58:51;;;;;;;83.30;41.40;;;22.20;85.90;;;;;;5067855;28;20032;-54
2021/11/18 12:01:27;;;;;;;75.03;37.55;;;22.20;85.80;;;;;;5066914;28;20035;-56
2021/11/18 12:04:04;;;;;;;67.78;35.90;;;22.20;85.80;;;;;;5069792;28;20394;-56
2021/11/18 12:06:46;;;;;;;71.45;34.72;;;22.20;85.70;;;;;;5067896;28;20028;-57
2021/11/18 12:09:26;;;;;;;72.57;34.53;;;22.30;85.90;;;;;;5068324;28;20036;-56
2021/11/18 12:12:04;;;;;;;71.30;35.08;;;22.20;85.90;;;;;;5070426;28;20029;-55
2021/11/18 12:14:41;;;;;;;69.22;35.40;;;22.20;85.70;;;;;;5070386;28;20039;-53
2021/11/18 12:17:23;;;;;;;57.95;32.85;;;22.20;85.80;;;;;;5068241;28;20028;-55
2021/11/18 12:19:56;;;;;;;64.95;32.90;;;22.20;85.90;;;;;;5065310;28;20123;-53
2021/11/18 12:22:40;;;;;;;67.18;32.08;;;22.20;86.00;;;;;;5069663;28;20031;-54
2021/11/18 12:25:20;;;;;;;54.22;30.17;;;22.20;85.80;;;;;;5068149;28;20025;-55
2021/11/18 12:28:12;;;;;;;56.95;30.20;;;22.20;85.90;;;;;;5066754;28;20028;-52
2021/11/18 12:30:48;;;;;;;53.40;28.88;;;22.20;85.90;;;;;;5063831;28;20439;-51
2021/11/18 12:33:22;;;;;;;62.03;28.58;;;22.20;86.10;;;;;;5068791;28;20136;-55
2021/11/18 12:36:17;;;;;;;49.40;27.23;;;22.20;86.20;;;;;;5069514;28;20041;-53
2021/11/18 12:39:29;;;;;;;49.97;27.38;;;22.20;85.90;;;;;;5068056;28;20116;-54
2021/11/18 12:42:40;;;;;;;57.60;28.88;;;22.20;85.90;;;;;;5069821;28;20028;-60
2021/11/18 12:45:40;;;;;;;51.53;28.38;;;22.20;85.90;;;;;;5067380;28;20112;-54
2021/11/18 12:48:10;;;;;;;50.65;26.38;;;22.20;85.80;;;;;;5069186;28;20112;-52
2021/11/18 12:50:47;;;;;;;50.88;26.85;;;22.20;85.90;;;;;;5072880;28;20020;-57
2021/11/18 12:53:19;;;;;;;52.70;27.05;;;22.20;85.90;;;;;;5071704;28;20063;-57
2021/11/18 12:56:04;;;;;;;56.80;27.75;;;22.20;85.80;;;;;;5068271;28;20028;-56
2021/11/18 12:58:46;;;;;;;55.67;28.85;;;22.10;85.70;;;;;;5068805;28;20394;-57
2021/11/18 13:01:23;;;;;;;50.17;26.52;;;22.10;85.60;;;;;;5066375;28;20029;-57
2021/11/18 13:03:50;;;;;;;48.67;26.17;;;22.10;85.70;;;;;;5069962;28;20036;-56
2021/11/18 13:06:39;;;;;;;57.50;28.52;;;22.10;85.90;;;;;;5067262;28;20047;-58